sensor_id;sensor_type;location;lat;lon;timestamp;P1;durP1;ratioP1;P2;durP2;ratioP2
82176;SDS011;71758;48.714;9.584;2023-12-28T00:00:24;19.65;;;9.25;;
82176;SDS011;71758;48.714;9.584;2023-12-28T00:02:49;14.32;;;7.53;;
82176;SDS011;71758;48.714;9.584;2023-12-28T00:05:14;17.42;;;8.98;;
82176;SDS011;71758;48.714;9.584;2023-12-28T00:07:40;14.15;;;7.65;;
82176;SDS011;71758;48.714;9.584;2023-12-28T00:10:05;16.98;;;8.48;;
82176;SDS011;71758;48.714;9.584;2023-12-28T00:12:31;14.18;;;8.30;;
82176;SDS011;71758;48.714;9.584;2023-12-28T00:14:57;15.02;;;8.32;;
82176;SDS011;71758;48.714;9.584;2023-12-28T00:17:22;17.38;;;9.63;;
82176;SDS011;71758;48.714;9.584;2023-12-28T00:19:48;17.55;;;9.93;;
82176;SDS011;71758;48.714;9.584;2023-12-28T00:22:13;15.80;;;8.73;;
82176;SDS011;71758;48.714;9.584;2023-12-28T00:24:39;16.38;;;8.50;;
82176;SDS011;71758;48.714;9.584;2023-12-28T00:27:04;17.38;;;8.00;;
82176;SDS011;71758;48.714;9.584;2023-12-28T00:29:29;15.43;;;8.88;;
82176;SDS011;71758;48.714;9.584;2023-12-28T00:31:55;18.38;;;9.35;;
82176;SDS011;71758;48.714;9.584;2023-12-28T00:34:20;20.50;;;10.07;;
82176;SDS011;71758;48.714;9.584;2023-12-28T00:36:46;28.48;;;13.63;;
82176;SDS011;71758;48.714;9.584;2023-12-28T00:39:11;22.90;;;12.25;;
82176;SDS011;71758;48.714;9.584;2023-12-28T00:41:37;18.00;;;9.45;;
82176;SDS011;71758;48.714;9.584;2023-12-28T00:44:02;17.08;;;8.60;;
82176;SDS011;71758;48.714;9.584;2023-12-28T00:46:28;17.85;;;8.75;;
82176;SDS011;71758;48.714;9.584;2023-12-28T00:48:53;17.30;;;8.20;;
82176;SDS011;71758;48.714;9.584;2023-12-28T00:51:19;19.90;;;8.55;;
82176;SDS011;71758;48.714;9.584;2023-12-28T00:53:46;20.35;;;10.55;;
82176;SDS011;71758;48.714;9.584;2023-12-28T00:56:11;19.65;;;9.13;;
82176;SDS011;71758;48.714;9.584;2023-12-28T00:58:39;19.33;;;10.27;;
82176;SDS011;71758;48.714;9.584;2023-12-28T01:01:05;20.27;;;10.32;;
82176;SDS011;71758;48.714;9.584;2023-12-28T01:03:31;16.38;;;9.15;;
82176;SDS011;71758;48.714;9.584;2023-12-28T01:05:56;17.17;;;9.45;;
82176;SDS011;71758;48.714;9.584;2023-12-28T01:08:24;20.95;;;10.80;;
82176;SDS011;71758;48.714;9.584;2023-12-28T01:10:50;22.02;;;11.18;;
82176;SDS011;71758;48.714;9.584;2023-12-28T01:13:15;19.40;;;10.07;;
82176;SDS011;71758;48.714;9.584;2023-12-28T01:15:40;17.98;;;11.10;;
82176;SDS011;71758;48.714;9.584;2023-12-28T01:18:06;17.95;;;9.63;;
82176;SDS011;71758;48.714;9.584;2023-12-28T01:20:32;22.63;;;10.45;;
82176;SDS011;71758;48.714;9.584;2023-12-28T01:22:57;19.00;;;10.18;;
82176;SDS011;71758;48.714;9.584;2023-12-28T01:25:23;18.58;;;10.20;;
82176;SDS011;71758;48.714;9.584;2023-12-28T01:27:48;18.75;;;9.77;;
82176;SDS011;71758;48.714;9.584;2023-12-28T01:30:13;18.77;;;9.88;;
82176;SDS011;71758;48.714;9.584;2023-12-28T01:32:39;20.77;;;9.90;;
82176;SDS011;71758;48.714;9.584;2023-12-28T01:35:04;17.52;;;8.80;;
82176;SDS011;71758;48.714;9.584;2023-12-28T01:37:30;17.00;;;8.00;;
82176;SDS011;71758;48.714;9.584;2023-12-28T01:39:58;16.42;;;7.15;;
82176;SDS011;71758;48.714;9.584;2023-12-28T01:42:24;16.13;;;7.80;;
82176;SDS011;71758;48.714;9.584;2023-12-28T01:44:49;16.23;;;8.90;;
82176;SDS011;71758;48.714;9.584;2023-12-28T01:47:14;16.60;;;9.13;;
82176;SDS011;71758;48.714;9.584;2023-12-28T01:49:40;16.77;;;8.77;;
82176;SDS011;71758;48.714;9.584;2023-12-28T01:52:05;14.27;;;9.00;;
82176;SDS011;71758;48.714;9.584;2023-12-28T01:54:31;17.73;;;9.30;;
82176;SDS011;71758;48.714;9.584;2023-12-28T01:56:57;17.75;;;9.52;;
82176;SDS011;71758;48.714;9.584;2023-12-28T01:59:22;15.20;;;7.68;;
82176;SDS011;71758;48.714;9.584;2023-12-28T02:01:48;16.75;;;8.13;;
82176;SDS011;71758;48.714;9.584;2023-12-28T02:04:13;13.85;;;7.72;;
82176;SDS011;71758;48.714;9.584;2023-12-28T02:06:39;16.60;;;8.98;;
82176;SDS011;71758;48.714;9.584;2023-12-28T02:09:04;16.10;;;8.75;;
82176;SDS011;71758;48.714;9.584;2023-12-28T02:11:30;18.50;;;8.60;;
82176;SDS011;71758;48.714;9.584;2023-12-28T02:13:56;14.60;;;7.93;;
82176;SDS011;71758;48.714;9.584;2023-12-28T02:16:35;14.90;;;6.72;;
82176;SDS011;71758;48.714;9.584;2023-12-28T02:19:09;12.57;;;6.28;;
82176;SDS011;71758;48.714;9.584;2023-12-28T02:21:44;14.07;;;6.90;;
82176;SDS011;71758;48.714;9.584;2023-12-28T02:24:10;14.60;;;7.50;;
82176;SDS011;71758;48.714;9.584;2023-12-28T02:26:36;16.98;;;7.93;;
82176;SDS011;71758;48.714;9.584;2023-12-28T02:29:01;14.43;;;7.85;;
82176;SDS011;71758;48.714;9.584;2023-12-28T02:31:35;13.43;;;7.63;;
82176;SDS011;71758;48.714;9.584;2023-12-28T02:34:04;17.13;;;8.25;;
82176;SDS011;71758;48.714;9.584;2023-12-28T02:38:59;14.57;;;7.20;;
82176;SDS011;71758;48.714;9.584;2023-12-28T02:41:28;12.13;;;6.40;;
82176;SDS011;71758;48.714;9.584;2023-12-28T02:43:54;11.40;;;6.28;;
82176;SDS011;71758;48.714;9.584;2023-12-28T02:46:19;13.45;;;6.47;;
82176;SDS011;71758;48.714;9.584;2023-12-28T02:48:44;13.90;;;7.30;;
82176;SDS011;71758;48.714;9.584;2023-12-28T02:51:10;13.82;;;6.88;;
82176;SDS011;71758;48.714;9.584;2023-12-28T02:53:35;13.60;;;6.65;;
82176;SDS011;71758;48.714;9.584;2023-12-28T02:56:01;12.02;;;6.40;;
82176;SDS011;71758;48.714;9.584;2023-12-28T02:58:26;15.60;;;7.07;;
82176;SDS011;71758;48.714;9.584;2023-12-28T03:00:51;16.17;;;6.68;;
82176;SDS011;71758;48.714;9.584;2023-12-28T03:03:17;14.57;;;7.20;;
82176;SDS011;71758;48.714;9.584;2023-12-28T03:05:42;14.48;;;6.93;;
82176;SDS011;71758;48.714;9.584;2023-12-28T03:08:07;15.80;;;8.07;;
82176;SDS011;71758;48.714;9.584;2023-12-28T03:10:33;12.98;;;6.95;;
82176;SDS011;71758;48.714;9.584;2023-12-28T03:12:58;15.70;;;6.40;;
82176;SDS011;71758;48.714;9.584;2023-12-28T03:15:24;13.85;;;6.43;;
82176;SDS011;71758;48.714;9.584;2023-12-28T03:17:49;14.48;;;6.75;;
82176;SDS011;71758;48.714;9.584;2023-12-28T03:20:14;11.60;;;6.38;;
82176;SDS011;71758;48.714;9.584;2023-12-28T03:22:40;11.48;;;6.70;;
82176;SDS011;71758;48.714;9.584;2023-12-28T03:25:05;13.60;;;7.10;;
82176;SDS011;71758;48.714;9.584;2023-12-28T03:27:31;18.70;;;7.07;;
82176;SDS011;71758;48.714;9.584;2023-12-28T03:29:56;13.45;;;6.38;;
82176;SDS011;71758;48.714;9.584;2023-12-28T03:32:22;13.02;;;6.05;;
82176;SDS011;71758;48.714;9.584;2023-12-28T03:34:47;12.85;;;6.70;;
82176;SDS011;71758;48.714;9.584;2023-12-28T03:37:12;15.30;;;6.53;;
82176;SDS011;71758;48.714;9.584;2023-12-28T03:39:38;12.00;;;6.10;;
82176;SDS011;71758;48.714;9.584;2023-12-28T03:42:03;12.73;;;6.10;;
82176;SDS011;71758;48.714;9.584;2023-12-28T03:44:29;13.20;;;5.75;;
82176;SDS011;71758;48.714;9.584;2023-12-28T03:46:54;10.45;;;5.80;;
82176;SDS011;71758;48.714;9.584;2023-12-28T03:49:21;10.80;;;5.68;;
82176;SDS011;71758;48.714;9.584;2023-12-28T03:51:50;10.77;;;5.40;;
82176;SDS011;71758;48.714;9.584;2023-12-28T03:54:16;9.90;;;5.07;;
82176;SDS011;71758;48.714;9.584;2023-12-28T03:56:42;11.35;;;6.20;;
82176;SDS011;71758;48.714;9.584;2023-12-28T03:59:08;15.25;;;6.45;;
82176;SDS011;71758;48.714;9.584;2023-12-28T04:01:33;11.25;;;6.05;;
82176;SDS011;71758;48.714;9.584;2023-12-28T04:03:59;13.18;;;6.25;;
82176;SDS011;71758;48.714;9.584;2023-12-28T04:06:24;10.02;;;5.78;;
82176;SDS011;71758;48.714;9.584;2023-12-28T04:08:50;12.25;;;5.70;;
82176;SDS011;71758;48.714;9.584;2023-12-28T04:11:15;13.25;;;5.60;;
82176;SDS011;71758;48.714;9.584;2023-12-28T04:13:40;11.07;;;5.60;;
82176;SDS011;71758;48.714;9.584;2023-12-28T04:16:06;12.80;;;6.10;;
82176;SDS011;71758;48.714;9.584;2023-12-28T04:18:31;12.10;;;5.55;;
82176;SDS011;71758;48.714;9.584;2023-12-28T04:20:57;12.55;;;5.47;;
82176;SDS011;71758;48.714;9.584;2023-12-28T04:23:23;11.32;;;5.30;;
82176;SDS011;71758;48.714;9.584;2023-12-28T04:25:48;10.32;;;5.65;;
82176;SDS011;71758;48.714;9.584;2023-12-28T04:28:14;13.55;;;5.95;;
82176;SDS011;71758;48.714;9.584;2023-12-28T04:30:39;10.85;;;5.72;;
82176;SDS011;71758;48.714;9.584;2023-12-28T04:33:04;9.93;;;5.18;;
82176;SDS011;71758;48.714;9.584;2023-12-28T04:35:30;10.80;;;4.65;;
82176;SDS011;71758;48.714;9.584;2023-12-28T04:37:55;9.57;;;4.85;;
82176;SDS011;71758;48.714;9.584;2023-12-28T04:40:21;12.85;;;5.53;;
82176;SDS011;71758;48.714;9.584;2023-12-28T04:42:46;11.43;;;5.45;;
82176;SDS011;71758;48.714;9.584;2023-12-28T04:45:12;10.75;;;5.20;;
82176;SDS011;71758;48.714;9.584;2023-12-28T04:47:38;12.82;;;5.18;;
82176;SDS011;71758;48.714;9.584;2023-12-28T04:50:04;10.63;;;5.22;;
82176;SDS011;71758;48.714;9.584;2023-12-28T04:52:30;11.10;;;5.30;;
82176;SDS011;71758;48.714;9.584;2023-12-28T04:54:56;7.82;;;4.50;;
82176;SDS011;71758;48.714;9.584;2023-12-28T04:57:21;10.25;;;4.72;;
82176;SDS011;71758;48.714;9.584;2023-12-28T04:59:49;9.02;;;4.63;;
82176;SDS011;71758;48.714;9.584;2023-12-28T05:02:14;9.35;;;4.78;;
82176;SDS011;71758;48.714;9.584;2023-12-28T05:04:40;9.55;;;4.55;;
82176;SDS011;71758;48.714;9.584;2023-12-28T05:07:05;8.88;;;4.93;;
82176;SDS011;71758;48.714;9.584;2023-12-28T05:09:30;9.90;;;4.80;;
82176;SDS011;71758;48.714;9.584;2023-12-28T05:11:56;9.13;;;4.50;;
82176;SDS011;71758;48.714;9.584;2023-12-28T05:14:21;10.52;;;4.93;;
82176;SDS011;71758;48.714;9.584;2023-12-28T05:16:47;10.07;;;4.55;;
82176;SDS011;71758;48.714;9.584;2023-12-28T05:19:12;8.18;;;4.10;;
82176;SDS011;71758;48.714;9.584;2023-12-28T05:21:37;8.65;;;4.35;;
82176;SDS011;71758;48.714;9.584;2023-12-28T05:24:03;10.80;;;4.35;;
82176;SDS011;71758;48.714;9.584;2023-12-28T05:26:29;13.55;;;5.88;;
82176;SDS011;71758;48.714;9.584;2023-12-28T05:28:55;12.07;;;4.60;;
82176;SDS011;71758;48.714;9.584;2023-12-28T05:31:20;6.05;;;2.80;;
82176;SDS011;71758;48.714;9.584;2023-12-28T05:33:45;10.18;;;4.80;;
82176;SDS011;71758;48.714;9.584;2023-12-28T05:36:11;12.05;;;5.00;;
82176;SDS011;71758;48.714;9.584;2023-12-28T05:38:36;12.88;;;5.75;;
82176;SDS011;71758;48.714;9.584;2023-12-28T05:41:02;12.02;;;5.88;;
82176;SDS011;71758;48.714;9.584;2023-12-28T05:43:27;15.85;;;5.57;;
82176;SDS011;71758;48.714;9.584;2023-12-28T05:45:52;12.15;;;5.65;;
82176;SDS011;71758;48.714;9.584;2023-12-28T05:48:18;10.52;;;5.32;;
82176;SDS011;71758;48.714;9.584;2023-12-28T05:50:43;11.43;;;5.35;;
82176;SDS011;71758;48.714;9.584;2023-12-28T05:53:08;11.45;;;5.43;;
82176;SDS011;71758;48.714;9.584;2023-12-28T05:55:39;13.05;;;4.85;;
82176;SDS011;71758;48.714;9.584;2023-12-28T05:58:08;9.23;;;4.80;;
82176;SDS011;71758;48.714;9.584;2023-12-28T06:00:34;9.10;;;4.50;;
82176;SDS011;71758;48.714;9.584;2023-12-28T06:03:01;11.05;;;4.38;;
82176;SDS011;71758;48.714;9.584;2023-12-28T06:05:26;8.38;;;4.10;;
82176;SDS011;71758;48.714;9.584;2023-12-28T06:07:52;9.18;;;3.95;;
82176;SDS011;71758;48.714;9.584;2023-12-28T06:10:17;9.67;;;4.17;;
82176;SDS011;71758;48.714;9.584;2023-12-28T06:12:42;7.65;;;3.90;;
82176;SDS011;71758;48.714;9.584;2023-12-28T06:15:08;7.80;;;3.70;;
82176;SDS011;71758;48.714;9.584;2023-12-28T06:17:33;10.00;;;4.45;;
82176;SDS011;71758;48.714;9.584;2023-12-28T06:19:59;8.93;;;3.95;;
82176;SDS011;71758;48.714;9.584;2023-12-28T06:22:24;8.27;;;4.05;;
82176;SDS011;71758;48.714;9.584;2023-12-28T06:24:52;9.57;;;4.43;;
82176;SDS011;71758;48.714;9.584;2023-12-28T06:27:21;9.32;;;4.30;;
82176;SDS011;71758;48.714;9.584;2023-12-28T06:29:46;7.65;;;4.10;;
82176;SDS011;71758;48.714;9.584;2023-12-28T06:32:12;8.65;;;4.15;;
82176;SDS011;71758;48.714;9.584;2023-12-28T06:34:37;11.55;;;4.38;;
82176;SDS011;71758;48.714;9.584;2023-12-28T06:37:03;8.77;;;4.20;;
82176;SDS011;71758;48.714;9.584;2023-12-28T06:39:28;9.60;;;4.47;;
82176;SDS011;71758;48.714;9.584;2023-12-28T06:41:54;9.43;;;4.60;;
82176;SDS011;71758;48.714;9.584;2023-12-28T06:44:19;8.82;;;4.35;;
82176;SDS011;71758;48.714;9.584;2023-12-28T06:46:44;9.93;;;4.32;;
82176;SDS011;71758;48.714;9.584;2023-12-28T06:49:10;8.38;;;4.50;;
82176;SDS011;71758;48.714;9.584;2023-12-28T06:51:35;8.57;;;4.40;;
82176;SDS011;71758;48.714;9.584;2023-12-28T06:54:01;9.80;;;4.50;;
82176;SDS011;71758;48.714;9.584;2023-12-28T06:56:26;9.18;;;4.13;;
82176;SDS011;71758;48.714;9.584;2023-12-28T06:58:51;8.77;;;4.50;;
82176;SDS011;71758;48.714;9.584;2023-12-28T07:01:17;8.52;;;4.30;;
82176;SDS011;71758;48.714;9.584;2023-12-28T07:03:42;9.70;;;4.85;;
82176;SDS011;71758;48.714;9.584;2023-12-28T07:06:08;10.38;;;4.85;;
82176;SDS011;71758;48.714;9.584;2023-12-28T07:08:33;9.25;;;4.50;;
82176;SDS011;71758;48.714;9.584;2023-12-28T07:10:59;9.77;;;4.95;;
82176;SDS011;71758;48.714;9.584;2023-12-28T07:13:24;10.00;;;5.35;;
82176;SDS011;71758;48.714;9.584;2023-12-28T07:15:50;9.52;;;5.18;;
82176;SDS011;71758;48.714;9.584;2023-12-28T07:18:16;7.43;;;4.30;;
82176;SDS011;71758;48.714;9.584;2023-12-28T07:20:41;7.82;;;4.63;;
82176;SDS011;71758;48.714;9.584;2023-12-28T07:23:07;9.30;;;4.68;;
82176;SDS011;71758;48.714;9.584;2023-12-28T07:25:33;8.30;;;4.45;;
82176;SDS011;71758;48.714;9.584;2023-12-28T07:27:59;9.57;;;4.82;;
82176;SDS011;71758;48.714;9.584;2023-12-28T07:30:24;8.23;;;4.30;;
82176;SDS011;71758;48.714;9.584;2023-12-28T07:32:49;7.78;;;3.90;;
82176;SDS011;71758;48.714;9.584;2023-12-28T07:35:15;8.77;;;4.10;;
82176;SDS011;71758;48.714;9.584;2023-12-28T07:37:40;6.57;;;3.58;;
82176;SDS011;71758;48.714;9.584;2023-12-28T07:40:06;9.70;;;4.75;;
82176;SDS011;71758;48.714;9.584;2023-12-28T07:42:31;9.02;;;5.03;;
82176;SDS011;71758;48.714;9.584;2023-12-28T07:44:57;11.40;;;4.85;;
82176;SDS011;71758;48.714;9.584;2023-12-28T07:47:22;11.63;;;6.50;;
82176;SDS011;71758;48.714;9.584;2023-12-28T07:49:47;13.35;;;8.13;;
82176;SDS011;71758;48.714;9.584;2023-12-28T07:52:13;12.15;;;7.10;;
82176;SDS011;71758;48.714;9.584;2023-12-28T07:54:38;13.95;;;7.25;;
82176;SDS011;71758;48.714;9.584;2023-12-28T07:57:04;11.60;;;6.40;;
82176;SDS011;71758;48.714;9.584;2023-12-28T07:59:29;13.48;;;6.93;;
82176;SDS011;71758;48.714;9.584;2023-12-28T08:01:55;11.18;;;6.63;;
82176;SDS011;71758;48.714;9.584;2023-12-28T08:04:21;9.68;;;6.10;;
82176;SDS011;71758;48.714;9.584;2023-12-28T08:06:46;10.57;;;5.90;;
82176;SDS011;71758;48.714;9.584;2023-12-28T08:09:12;13.68;;;7.00;;
82176;SDS011;71758;48.714;9.584;2023-12-28T08:11:37;11.57;;;6.63;;
82176;SDS011;71758;48.714;9.584;2023-12-28T08:14:03;11.55;;;6.15;;
82176;SDS011;71758;48.714;9.584;2023-12-28T08:16:28;10.30;;;5.75;;
82176;SDS011;71758;48.714;9.584;2023-12-28T08:18:54;11.98;;;6.00;;
82176;SDS011;71758;48.714;9.584;2023-12-28T08:21:19;9.27;;;5.15;;
82176;SDS011;71758;48.714;9.584;2023-12-28T08:23:45;10.00;;;5.15;;
82176;SDS011;71758;48.714;9.584;2023-12-28T08:26:10;9.25;;;5.10;;
82176;SDS011;71758;48.714;9.584;2023-12-28T08:28:36;10.90;;;6.53;;
82176;SDS011;71758;48.714;9.584;2023-12-28T08:31:01;12.63;;;6.50;;
82176;SDS011;71758;48.714;9.584;2023-12-28T08:33:27;13.02;;;6.28;;
82176;SDS011;71758;48.714;9.584;2023-12-28T08:35:52;13.02;;;6.47;;
82176;SDS011;71758;48.714;9.584;2023-12-28T08:38:17;11.77;;;6.00;;
82176;SDS011;71758;48.714;9.584;2023-12-28T08:40:43;11.55;;;5.93;;
82176;SDS011;71758;48.714;9.584;2023-12-28T08:43:09;11.93;;;5.75;;
82176;SDS011;71758;48.714;9.584;2023-12-28T08:45:35;10.95;;;5.30;;
82176;SDS011;71758;48.714;9.584;2023-12-28T08:48:00;9.52;;;4.57;;
82176;SDS011;71758;48.714;9.584;2023-12-28T08:50:26;9.73;;;5.82;;
82176;SDS011;71758;48.714;9.584;2023-12-28T08:52:51;9.40;;;5.43;;
82176;SDS011;71758;48.714;9.584;2023-12-28T08:55:17;11.13;;;5.18;;
82176;SDS011;71758;48.714;9.584;2023-12-28T08:57:42;12.23;;;6.15;;
82176;SDS011;71758;48.714;9.584;2023-12-28T09:00:07;12.25;;;6.45;;
82176;SDS011;71758;48.714;9.584;2023-12-28T09:02:34;11.73;;;6.60;;
82176;SDS011;71758;48.714;9.584;2023-12-28T09:04:59;11.03;;;6.20;;
82176;SDS011;71758;48.714;9.584;2023-12-28T09:07:26;14.52;;;8.43;;
82176;SDS011;71758;48.714;9.584;2023-12-28T09:09:51;12.20;;;6.75;;
82176;SDS011;71758;48.714;9.584;2023-12-28T09:12:16;10.68;;;6.38;;
82176;SDS011;71758;48.714;9.584;2023-12-28T09:14:42;9.95;;;6.22;;
82176;SDS011;71758;48.714;9.584;2023-12-28T09:17:07;12.52;;;6.00;;
82176;SDS011;71758;48.714;9.584;2023-12-28T09:19:33;12.70;;;6.10;;
82176;SDS011;71758;48.714;9.584;2023-12-28T09:21:58;11.57;;;5.78;;
82176;SDS011;71758;48.714;9.584;2023-12-28T09:24:23;10.88;;;5.75;;
82176;SDS011;71758;48.714;9.584;2023-12-28T09:26:51;10.93;;;6.28;;
82176;SDS011;71758;48.714;9.584;2023-12-28T09:29:18;10.63;;;6.10;;
82176;SDS011;71758;48.714;9.584;2023-12-28T09:31:45;11.07;;;6.55;;
82176;SDS011;71758;48.714;9.584;2023-12-28T09:34:10;11.15;;;6.30;;
82176;SDS011;71758;48.714;9.584;2023-12-28T09:36:36;13.63;;;6.85;;
82176;SDS011;71758;48.714;9.584;2023-12-28T09:39:01;12.95;;;6.85;;
82176;SDS011;71758;48.714;9.584;2023-12-28T09:41:27;12.57;;;6.57;;
82176;SDS011;71758;48.714;9.584;2023-12-28T09:44:08;11.82;;;6.57;;
82176;SDS011;71758;48.714;9.584;2023-12-28T09:46:36;12.20;;;7.25;;
82176;SDS011;71758;48.714;9.584;2023-12-28T09:49:03;9.18;;;5.22;;
82176;SDS011;71758;48.714;9.584;2023-12-28T09:51:29;10.82;;;6.00;;
82176;SDS011;71758;48.714;9.584;2023-12-28T09:53:56;12.85;;;6.43;;
82176;SDS011;71758;48.714;9.584;2023-12-28T09:56:22;12.48;;;5.40;;
82176;SDS011;71758;48.714;9.584;2023-12-28T09:58:48;10.77;;;5.13;;
82176;SDS011;71758;48.714;9.584;2023-12-28T10:01:15;12.82;;;6.07;;
82176;SDS011;71758;48.714;9.584;2023-12-28T10:03:42;11.50;;;6.10;;
82176;SDS011;71758;48.714;9.584;2023-12-28T10:06:07;12.98;;;6.47;;
82176;SDS011;71758;48.714;9.584;2023-12-28T10:08:33;10.55;;;5.97;;
82176;SDS011;71758;48.714;9.584;2023-12-28T10:10:58;10.20;;;5.50;;
82176;SDS011;71758;48.714;9.584;2023-12-28T10:13:25;12.30;;;6.40;;
82176;SDS011;71758;48.714;9.584;2023-12-28T10:15:50;10.85;;;6.43;;
82176;SDS011;71758;48.714;9.584;2023-12-28T10:18:18;16.33;;;7.35;;
82176;SDS011;71758;48.714;9.584;2023-12-28T10:20:50;17.88;;;8.20;;
82176;SDS011;71758;48.714;9.584;2023-12-28T10:23:16;16.00;;;8.05;;
82176;SDS011;71758;48.714;9.584;2023-12-28T10:25:42;23.85;;;11.30;;
82176;SDS011;71758;48.714;9.584;2023-12-28T10:28:09;19.98;;;9.55;;
82176;SDS011;71758;48.714;9.584;2023-12-28T10:30:37;20.60;;;9.05;;
82176;SDS011;71758;48.714;9.584;2023-12-28T10:33:04;24.92;;;13.55;;
82176;SDS011;71758;48.714;9.584;2023-12-28T10:35:30;24.45;;;13.38;;
82176;SDS011;71758;48.714;9.584;2023-12-28T10:37:56;21.80;;;11.25;;
82176;SDS011;71758;48.714;9.584;2023-12-28T10:40:25;14.88;;;8.38;;
82176;SDS011;71758;48.714;9.584;2023-12-28T10:42:52;17.33;;;7.88;;
82176;SDS011;71758;48.714;9.584;2023-12-28T10:45:19;15.68;;;7.80;;
82176;SDS011;71758;48.714;9.584;2023-12-28T10:50:42;13.55;;;7.55;;
82176;SDS011;71758;48.714;9.584;2023-12-28T10:56:26;12.18;;;6.00;;
82176;SDS011;71758;48.714;9.584;2023-12-28T10:59:44;10.73;;;6.03;;
82176;SDS011;71758;48.714;9.584;2023-12-28T11:01:54;10.77;;;6.07;;
82176;SDS011;71758;48.714;9.584;2023-12-28T11:07:13;14.00;;;7.43;;
82176;SDS011;71758;48.714;9.584;2023-12-28T11:09:43;17.42;;;10.65;;
82176;SDS011;71758;48.714;9.584;2023-12-28T11:12:10;15.18;;;9.68;;
82176;SDS011;71758;48.714;9.584;2023-12-28T11:14:36;14.82;;;8.82;;
82176;SDS011;71758;48.714;9.584;2023-12-28T11:17:06;14.15;;;8.75;;
82176;SDS011;71758;48.714;9.584;2023-12-28T11:19:32;14.68;;;7.50;;
82176;SDS011;71758;48.714;9.584;2023-12-28T11:21:58;13.35;;;7.03;;
82176;SDS011;71758;48.714;9.584;2023-12-28T11:24:27;13.45;;;6.97;;
82176;SDS011;71758;48.714;9.584;2023-12-28T11:26:53;13.05;;;6.70;;
82176;SDS011;71758;48.714;9.584;2023-12-28T11:29:19;8.90;;;4.18;;
82176;SDS011;71758;48.714;9.584;2023-12-28T11:31:50;11.65;;;6.20;;
82176;SDS011;71758;48.714;9.584;2023-12-28T11:34:16;12.27;;;6.70;;
82176;SDS011;71758;48.714;9.584;2023-12-28T11:36:52;22.52;;;8.90;;
82176;SDS011;71758;48.714;9.584;2023-12-28T11:39:31;15.25;;;8.40;;
82176;SDS011;71758;48.714;9.584;2023-12-28T11:42:07;15.27;;;8.32;;
82176;SDS011;71758;48.714;9.584;2023-12-28T11:44:42;17.20;;;8.70;;
82176;SDS011;71758;48.714;9.584;2023-12-28T11:47:15;13.65;;;7.53;;
82176;SDS011;71758;48.714;9.584;2023-12-28T11:49:42;14.38;;;8.13;;
82176;SDS011;71758;48.714;9.584;2023-12-28T11:52:10;16.60;;;8.77;;
82176;SDS011;71758;48.714;9.584;2023-12-28T11:54:49;16.45;;;8.32;;
82176;SDS011;71758;48.714;9.584;2023-12-28T11:57:15;16.75;;;9.32;;
82176;SDS011;71758;48.714;9.584;2023-12-28T11:59:40;13.98;;;8.80;;
82176;SDS011;71758;48.714;9.584;2023-12-28T12:02:06;14.68;;;7.63;;
82176;SDS011;71758;48.714;9.584;2023-12-28T12:04:33;11.05;;;5.30;;
82176;SDS011;71758;48.714;9.584;2023-12-28T12:07:01;7.90;;;4.10;;
82176;SDS011;71758;48.714;9.584;2023-12-28T12:09:28;6.68;;;3.70;;
82176;SDS011;71758;48.714;9.584;2023-12-28T12:11:57;7.90;;;3.25;;
82176;SDS011;71758;48.714;9.584;2023-12-28T12:14:23;5.45;;;2.67;;
82176;SDS011;71758;48.714;9.584;2023-12-28T12:16:48;6.47;;;2.67;;
82176;SDS011;71758;48.714;9.584;2023-12-28T12:19:14;5.32;;;2.58;;
82176;SDS011;71758;48.714;9.584;2023-12-28T12:21:40;9.43;;;2.63;;
82176;SDS011;71758;48.714;9.584;2023-12-28T12:24:05;16.15;;;5.22;;
82176;SDS011;71758;48.714;9.584;2023-12-28T12:26:31;15.75;;;4.82;;
82176;SDS011;71758;48.714;9.584;2023-12-28T12:28:56;10.20;;;3.63;;
82176;SDS011;71758;48.714;9.584;2023-12-28T12:31:22;7.78;;;2.85;;
82176;SDS011;71758;48.714;9.584;2023-12-28T12:33:48;6.75;;;2.72;;
82176;SDS011;71758;48.714;9.584;2023-12-28T12:36:15;8.07;;;3.15;;
82176;SDS011;71758;48.714;9.584;2023-12-28T12:38:40;6.45;;;2.85;;
82176;SDS011;71758;48.714;9.584;2023-12-28T12:41:06;6.53;;;3.20;;
82176;SDS011;71758;48.714;9.584;2023-12-28T12:43:32;6.90;;;3.40;;
82176;SDS011;71758;48.714;9.584;2023-12-28T12:45:58;8.05;;;4.18;;
82176;SDS011;71758;48.714;9.584;2023-12-28T12:48:25;7.70;;;3.88;;
82176;SDS011;71758;48.714;9.584;2023-12-28T12:50:50;6.75;;;4.20;;
82176;SDS011;71758;48.714;9.584;2023-12-28T12:53:16;8.30;;;4.45;;
82176;SDS011;71758;48.714;9.584;2023-12-28T12:55:41;9.07;;;4.40;;
82176;SDS011;71758;48.714;9.584;2023-12-28T12:58:08;7.63;;;3.90;;
82176;SDS011;71758;48.714;9.584;2023-12-28T13:00:34;8.50;;;4.50;;
82176;SDS011;71758;48.714;9.584;2023-12-28T13:03:00;8.13;;;4.18;;
82176;SDS011;71758;48.714;9.584;2023-12-28T13:05:26;9.07;;;4.05;;
82176;SDS011;71758;48.714;9.584;2023-12-28T13:07:51;10.80;;;4.13;;
82176;SDS011;71758;48.714;9.584;2023-12-28T13:10:17;7.93;;;3.78;;
82176;SDS011;71758;48.714;9.584;2023-12-28T13:12:42;8.32;;;4.03;;
82176;SDS011;71758;48.714;9.584;2023-12-28T13:15:08;11.18;;;4.15;;
82176;SDS011;71758;48.714;9.584;2023-12-28T13:17:35;8.18;;;4.57;;
82176;SDS011;71758;48.714;9.584;2023-12-28T13:20:04;7.53;;;4.38;;
82176;SDS011;71758;48.714;9.584;2023-12-28T13:22:32;8.32;;;4.22;;
82176;SDS011;71758;48.714;9.584;2023-12-28T13:24:59;7.72;;;4.47;;
82176;SDS011;71758;48.714;9.584;2023-12-28T13:27:24;8.25;;;4.50;;
82176;SDS011;71758;48.714;9.584;2023-12-28T13:29:50;10.43;;;4.78;;
82176;SDS011;71758;48.714;9.584;2023-12-28T13:32:15;7.53;;;4.10;;
82176;SDS011;71758;48.714;9.584;2023-12-28T13:34:41;8.45;;;4.70;;
82176;SDS011;71758;48.714;9.584;2023-12-28T13:37:06;9.85;;;5.05;;
82176;SDS011;71758;48.714;9.584;2023-12-28T13:39:32;8.70;;;4.78;;
82176;SDS011;71758;48.714;9.584;2023-12-28T13:41:58;9.00;;;5.00;;
82176;SDS011;71758;48.714;9.584;2023-12-28T13:44:23;10.27;;;4.85;;
82176;SDS011;71758;48.714;9.584;2023-12-28T13:46:49;10.40;;;4.70;;
82176;SDS011;71758;48.714;9.584;2023-12-28T13:49:14;7.78;;;4.47;;
82176;SDS011;71758;48.714;9.584;2023-12-28T13:51:39;8.38;;;4.50;;
82176;SDS011;71758;48.714;9.584;2023-12-28T13:54:05;8.75;;;4.95;;
82176;SDS011;71758;48.714;9.584;2023-12-28T13:56:31;9.98;;;4.78;;
82176;SDS011;71758;48.714;9.584;2023-12-28T13:58:57;13.88;;;7.30;;
82176;SDS011;71758;48.714;9.584;2023-12-28T14:01:22;15.82;;;9.25;;
82176;SDS011;71758;48.714;9.584;2023-12-28T14:03:48;12.77;;;8.38;;
82176;SDS011;71758;48.714;9.584;2023-12-28T14:06:16;16.45;;;9.02;;
82176;SDS011;71758;48.714;9.584;2023-12-28T14:08:42;12.10;;;6.45;;
82176;SDS011;71758;48.714;9.584;2023-12-28T14:11:07;9.15;;;4.60;;
82176;SDS011;71758;48.714;9.584;2023-12-28T14:13:32;10.13;;;5.70;;
82176;SDS011;71758;48.714;9.584;2023-12-28T14:16:00;10.77;;;6.35;;
82176;SDS011;71758;48.714;9.584;2023-12-28T14:18:25;10.50;;;5.32;;
82176;SDS011;71758;48.714;9.584;2023-12-28T14:20:51;15.50;;;8.93;;
82176;SDS011;71758;48.714;9.584;2023-12-28T14:23:19;12.80;;;7.43;;
82176;SDS011;71758;48.714;9.584;2023-12-28T14:25:45;11.85;;;6.28;;
82176;SDS011;71758;48.714;9.584;2023-12-28T14:28:16;9.52;;;5.65;;
82176;SDS011;71758;48.714;9.584;2023-12-28T14:30:42;16.08;;;8.75;;
82176;SDS011;71758;48.714;9.584;2023-12-28T14:33:08;12.80;;;6.65;;
82176;SDS011;71758;48.714;9.584;2023-12-28T14:35:34;14.38;;;7.75;;
82176;SDS011;71758;48.714;9.584;2023-12-28T14:38:00;13.40;;;5.95;;
82176;SDS011;71758;48.714;9.584;2023-12-28T14:40:25;15.00;;;7.68;;
82176;SDS011;71758;48.714;9.584;2023-12-28T14:42:51;12.70;;;7.10;;